createdAt,value
2018-08-25T00:00:43.092Z,13.31
2018-08-25T00:03:15.612Z,13.42
2018-08-25T00:05:48.323Z,13.17
2018-08-25T00:08:20.305Z,13.22
2018-08-25T00:10:53.404Z,13.33
2018-08-25T00:13:26.100Z,13.17
2018-08-25T00:16:00.227Z,13.13
2018-08-25T00:18:32.130Z,13.19
2018-08-25T00:21:05.209Z,13.33
2018-08-25T00:23:36.218Z,13.28
2018-08-25T00:26:15.951Z,13.28
2018-08-25T00:28:48.899Z,13.22
2018-08-25T00:31:23.738Z,13.04
2018-08-25T00:34:00.249Z,13.09
2018-08-25T00:36:36.017Z,13.18
2018-08-25T00:39:14.336Z,13.08
2018-08-25T00:41:52.496Z,12.99
2018-08-25T00:44:26.452Z,13.18
2018-08-25T00:46:56.526Z,12.97
2018-08-25T00:49:26.803Z,12.93
2018-08-25T00:51:58.517Z,12.87
2018-08-25T00:54:29.304Z,12.87
2018-08-25T00:57:00.274Z,13.01
2018-08-25T00:59:32.115Z,13.02
2018-08-25T01:02:04.664Z,12.96
2018-08-25T01:04:40.033Z,13.01
2018-08-25T01:07:10.248Z,13.07
2018-08-25T01:09:42.889Z,13.10
2018-08-25T01:12:15.913Z,12.82
2018-08-25T01:14:46.237Z,12.96
2018-08-25T01:17:20.283Z,13.16
2018-08-25T01:19:50.436Z,13.03
2018-08-25T01:22:21.472Z,12.90
2018-08-25T01:24:54.247Z,12.86
2018-08-25T01:27:24.979Z,13.07
2018-08-25T01:29:55.114Z,13.17
2018-08-25T01:32:25.826Z,13.05
2018-08-25T01:34:56.268Z,13.10
2018-08-25T01:37:29.198Z,13.01
2018-08-25T01:40:01.118Z,12.85
2018-08-25T01:42:32.990Z,12.76
2018-08-25T01:45:03.784Z,12.79
2018-08-25T01:47:35.148Z,12.59
2018-08-25T01:50:05.409Z,12.56
2018-08-25T01:52:38.412Z,12.70
2018-08-25T01:55:09.359Z,12.61
2018-08-25T01:57:42.135Z,12.57
2018-08-25T02:00:13.286Z,12.55
2018-08-25T02:02:43.481Z,12.64
2018-08-25T02:05:14.945Z,12.52
2018-08-25T02:07:46.551Z,12.59
2018-08-25T02:10:17.525Z,12.61
2018-08-25T02:12:48.370Z,12.46
2018-08-25T02:15:19.373Z,12.50
2018-08-25T02:17:53.435Z,12.51
2018-08-25T02:20:25.788Z,12.59
2018-08-25T02:22:59.332Z,12.69
2018-08-25T02:25:35.228Z,12.65
2018-08-25T02:28:06.068Z,12.80
2018-08-25T02:30:39.381Z,13.03
2018-08-25T02:33:12.723Z,13.03
2018-08-25T02:35:44.596Z,12.75
2018-08-25T02:38:19.238Z,12.69
2018-08-25T02:40:50.272Z,12.55
2018-08-25T02:43:24.208Z,12.49
2018-08-25T02:45:55.736Z,12.50
2018-08-25T02:48:27.249Z,12.52
2018-08-25T02:50:57.997Z,12.49
2018-08-25T02:53:28.401Z,12.73
2018-08-25T02:56:00.984Z,12.86
2018-08-25T02:58:33.198Z,13.05
2018-08-25T03:01:02.926Z,12.63
2018-08-25T03:03:34.522Z,12.75
2018-08-25T03:06:04.543Z,12.50
2018-08-25T03:08:34.907Z,12.50
2018-08-25T03:11:05.535Z,12.64
2018-08-25T03:13:36.611Z,12.71
2018-08-25T03:16:08.181Z,12.51
2018-08-25T03:18:38.554Z,12.58
2018-08-25T03:21:09.076Z,12.40
2018-08-25T03:23:41.201Z,12.40
2018-08-25T03:26:13.657Z,12.54
2018-08-25T03:28:44.001Z,12.61
2018-08-25T03:31:19.609Z,12.35
2018-08-25T03:37:00.744Z,12.38
2018-08-25T03:39:34.029Z,12.40
2018-08-25T03:42:05.500Z,12.41
2018-08-25T03:44:38.337Z,12.23
2018-08-25T03:47:10.119Z,12.27
2018-08-25T03:49:41.965Z,12.31
2018-08-25T03:52:13.653Z,12.40
2018-08-25T03:54:46.448Z,12.26
2018-08-25T03:57:18.691Z,12.50
2018-08-25T03:59:50.689Z,12.33
2018-08-25T04:02:23.545Z,12.18
2018-08-25T04:04:56.524Z,12.05
2018-08-25T04:07:31.904Z,12.19
2018-08-25T04:10:03.735Z,12.22
2018-08-25T04:12:34.846Z,12.25
2018-08-25T04:15:06.204Z,12.38
2018-08-25T04:17:40.359Z,12.30
2018-08-25T04:20:19.509Z,12.14
2018-08-25T04:22:54.380Z,12.23
2018-08-25T04:25:29.077Z,12.22
2018-08-25T04:28:02.243Z,12.31
2018-08-25T04:30:34.612Z,12.19
2018-08-25T04:33:09.200Z,12.30
2018-08-25T04:35:41.060Z,12.24
2018-08-25T04:38:17.321Z,12.52
2018-08-25T04:40:52.029Z,12.25
2018-08-25T04:43:22.237Z,12.65
2018-08-25T04:45:52.379Z,12.55
2018-08-25T04:48:23.018Z,12.45
2018-08-25T04:50:54.781Z,12.46
2018-08-25T04:53:26.111Z,12.72
2018-08-25T04:55:58.270Z,12.63
2018-08-25T04:58:29.760Z,12.40
2018-08-25T05:01:04.022Z,12.42
2018-08-25T05:03:34.184Z,12.32
2018-08-25T05:06:05.133Z,12.31
2018-08-25T05:08:35.301Z,12.51
2018-08-25T05:11:07.239Z,12.37
2018-08-25T05:13:38.137Z,12.79
2018-08-25T05:16:08.222Z,12.64
2018-08-25T05:18:40.909Z,12.62
2018-08-25T05:21:12.924Z,12.62
2018-08-25T05:23:45.367Z,12.69
2018-08-25T05:26:17.835Z,12.75
2018-08-25T05:28:52.714Z,12.88
2018-08-25T05:31:22.964Z,12.75
2018-08-25T05:33:55.358Z,12.88
2018-08-25T05:36:27.014Z,12.99
2018-08-25T05:39:00.948Z,12.94
2018-08-25T05:41:32.198Z,13.04
2018-08-25T05:44:03.646Z,13.03
2018-08-25T05:46:34.553Z,12.94
2018-08-25T05:49:05.187Z,13.06
2018-08-25T05:51:37.660Z,13.50
2018-08-25T05:54:08.499Z,13.41
2018-08-25T05:56:38.692Z,13.35
2018-08-25T05:59:09.021Z,13.41
2018-08-25T06:01:39.646Z,13.46
2018-08-25T06:04:09.914Z,13.47
2018-08-25T06:06:41.528Z,13.59
2018-08-25T06:09:14.026Z,13.24
2018-08-25T06:11:46.053Z,13.38
2018-08-25T06:14:18.063Z,13.52
2018-08-25T06:16:48.586Z,13.63
2018-08-25T06:19:20.680Z,13.74
2018-08-25T06:21:51.864Z,13.96
2018-08-25T06:24:23.676Z,13.80
2018-08-25T06:26:53.868Z,13.86
2018-08-25T06:29:24.089Z,13.63
2018-08-25T06:31:55.971Z,13.71
2018-08-25T06:34:26.363Z,13.91
2018-08-25T06:38:54.678Z,14.06
2018-08-25T06:41:27.918Z,14.16
2018-08-25T06:43:58.898Z,14.06
2018-08-25T06:46:30.860Z,14.40
2018-08-25T06:49:02.254Z,14.34
2018-08-25T06:51:33.351Z,14.49
2018-08-25T06:54:05.310Z,14.48
2018-08-25T06:56:48.144Z,14.44
2018-08-25T06:59:22.822Z,14.52
2018-08-25T07:01:55.445Z,14.68
2018-08-25T07:04:27.070Z,14.66
2018-08-25T07:06:58.263Z,14.46
2018-08-25T07:09:29.056Z,14.28
2018-08-25T07:12:00.099Z,14.68
2018-08-25T07:14:31.934Z,14.79
2018-08-25T07:17:02.072Z,14.79
2018-08-25T07:19:33.317Z,14.91
2018-08-25T07:22:06.386Z,14.71
2018-08-25T07:24:37.401Z,14.85
2018-08-25T07:27:09.118Z,14.80
2018-08-25T07:29:42.757Z,14.75
2018-08-25T07:32:13.189Z,14.86
2018-08-25T07:34:44.429Z,15.17
2018-08-25T07:37:14.706Z,15.04
2018-08-25T07:39:46.919Z,15.04
2018-08-25T07:42:18.821Z,15.07
2018-08-25T07:44:49.381Z,15.15
2018-08-25T07:47:19.661Z,15.17
2018-08-25T07:49:55.514Z,14.97
2018-08-25T07:52:27.177Z,15.11
2018-08-25T07:54:57.528Z,15.28
2018-08-25T07:57:28.873Z,15.04
2018-08-25T08:01:17.392Z,15.13
2018-08-25T08:03:48.823Z,15.11
2018-08-25T08:06:20.216Z,15.42
2018-08-25T08:08:51.802Z,15.28
2018-08-25T08:11:23.756Z,15.55
2018-08-25T08:13:53.929Z,15.44
2018-08-25T08:16:24.889Z,15.67
2018-08-25T08:18:55.196Z,15.11
2018-08-25T08:21:25.838Z,15.02
2018-08-25T08:23:58.121Z,14.97
2018-08-25T08:26:28.319Z,15.12
2018-08-25T08:28:59.623Z,15.53
2018-08-25T08:31:30.114Z,15.46
2018-08-25T08:34:00.369Z,15.43
2018-08-25T08:36:31.772Z,15.25
2018-08-25T08:39:02.092Z,15.52
2018-08-25T08:41:34.112Z,15.59
2018-08-25T08:44:28.914Z,15.59
2018-08-25T08:47:00.627Z,15.50
2018-08-25T08:49:30.785Z,15.62
2018-08-25T08:52:01.596Z,15.55
2018-08-25T08:54:31.890Z,15.69
2018-08-25T08:57:04.387Z,15.63
2018-08-25T08:59:40.427Z,15.24
2018-08-25T09:02:16.439Z,15.36
2018-08-25T09:04:49.111Z,15.16
2018-08-25T09:07:24.022Z,14.94
2018-08-25T09:09:57.209Z,14.99
2018-08-25T09:12:28.833Z,15.08
2018-08-25T09:15:07.611Z,15.12
2018-08-25T09:17:42.370Z,15.08
2018-08-25T09:26:15.484Z,14.85
2018-08-25T09:30:45.790Z,14.53
2018-08-25T09:33:31.698Z,14.69
2018-08-25T09:36:03.953Z,14.65
2018-08-25T09:38:34.882Z,14.64
2018-08-25T09:41:10.264Z,14.81
2018-08-25T09:43:41.373Z,15.09
2018-08-25T09:46:15.081Z,15.07
2018-08-25T09:48:45.188Z,15.07
2018-08-25T09:51:16.512Z,15.14
2018-08-25T09:53:46.705Z,15.38
2018-08-25T09:56:16.873Z,15.45
2018-08-25T09:58:50.149Z,15.14
2018-08-25T10:01:27.184Z,15.11
2018-08-25T10:03:59.234Z,14.91
2018-08-25T10:06:38.838Z,14.81
2018-08-25T10:09:12.887Z,15.04
2018-08-25T10:11:54.923Z,15.07
2018-08-25T10:14:35.281Z,15.34
2018-08-25T10:17:14.066Z,15.39
2018-08-25T10:19:47.423Z,15.58
2018-08-25T10:22:28.965Z,15.66
2018-08-25T10:27:41.963Z,15.69
2018-08-25T10:30:15.897Z,15.86
2018-08-25T10:32:49.030Z,16.03
2018-08-25T10:35:19.550Z,15.99
2018-08-25T10:37:55.845Z,15.95
2018-08-25T10:40:26.209Z,15.81
2018-08-25T10:42:58.520Z,16.01
2018-08-25T10:45:28.973Z,16.13
2018-08-25T10:48:00.516Z,15.59
2018-08-25T10:50:31.370Z,15.36
2018-08-25T10:53:03.679Z,15.32
2018-08-25T10:55:37.128Z,15.03
2018-08-25T10:58:07.441Z,15.07
2018-08-25T11:00:38.466Z,15.46
2018-08-25T11:03:09.032Z,15.43
2018-08-25T11:05:40.166Z,15.46
2018-08-25T11:08:11.233Z,15.19
2018-08-25T11:10:45.440Z,15.09
2018-08-25T11:13:15.677Z,15.26
2018-08-25T11:15:46.565Z,15.27
2018-08-25T11:18:17.505Z,15.41
2018-08-25T11:23:46.606Z,15.44
2018-08-25T11:26:25.767Z,15.50
2018-08-25T11:42:08.411Z,16.02
2018-08-25T11:44:40.907Z,16.15
2018-08-25T11:47:16.067Z,15.62
2018-08-25T11:49:48.190Z,15.92
2018-08-25T11:52:20.344Z,15.42
2018-08-25T11:54:52.154Z,15.73
2018-08-25T11:57:23.334Z,15.95
2018-08-25T11:59:56.595Z,15.80
2018-08-25T12:02:28.108Z,15.57
2018-08-25T12:04:58.426Z,15.26
2018-08-25T12:07:28.570Z,15.33
2018-08-25T12:09:58.767Z,15.47
2018-08-25T12:12:29.619Z,15.50
2018-08-25T12:15:00.836Z,15.34
2018-08-25T12:17:36.991Z,15.28
2018-08-25T12:20:10.385Z,15.26
2018-08-25T12:25:46.181Z,14.87
2018-08-25T12:28:17.221Z,14.26
2018-08-25T12:30:47.607Z,14.52
2018-08-25T12:33:20.278Z,14.43
2018-08-25T12:35:53.943Z,14.41
2018-08-25T12:38:28.462Z,14.40
2018-08-25T12:40:58.820Z,14.55
2018-08-25T12:43:29.403Z,14.56
2018-08-25T12:45:59.878Z,14.61
2018-08-25T12:48:30.055Z,14.67
2018-08-25T12:51:02.587Z,14.23
2018-08-25T12:53:33.761Z,14.39
2018-08-25T12:56:05.461Z,14.21
2018-08-25T12:58:37.599Z,13.81
2018-08-25T13:01:08.324Z,14.44
2018-08-25T13:03:39.637Z,14.24
2018-08-25T13:06:10.440Z,14.59
2018-08-25T13:08:40.910Z,14.49
2018-08-25T13:11:51.051Z,14.82
2018-08-25T13:14:21.937Z,14.86
2018-08-25T13:16:52.363Z,14.63
2018-08-25T13:19:22.885Z,14.44
2018-08-25T13:21:53.517Z,14.61
2018-08-25T13:24:23.852Z,14.59
2018-08-25T13:26:54.044Z,14.89
2018-08-25T13:29:24.982Z,14.99
2018-08-25T13:31:55.685Z,14.91
2018-08-25T13:34:26.806Z,14.75
2018-08-25T13:36:57.804Z,14.96
2018-08-25T13:39:27.995Z,14.76
2018-08-25T13:42:02.696Z,14.98
2018-08-25T13:44:33.199Z,14.91
2018-08-25T13:47:04.141Z,14.45
2018-08-25T13:49:34.956Z,14.40
2018-08-25T13:52:06.904Z,14.66
2018-08-25T13:54:38.364Z,14.78
2018-08-25T13:57:09.712Z,14.69
2018-08-25T13:59:40.660Z,14.49
2018-08-25T14:02:11.913Z,14.55
2018-08-25T14:04:43.040Z,14.67
2018-08-25T14:07:13.054Z,14.64
2018-08-25T14:09:44.883Z,14.85
2018-08-25T14:12:15.804Z,14.90
2018-08-25T14:14:46.506Z,14.77
2018-08-25T14:17:18.880Z,14.52
2018-08-25T14:19:49.206Z,14.51
2018-08-25T14:22:19.609Z,14.54
2018-08-25T14:24:50.146Z,14.24
2018-08-25T14:27:21.462Z,14.30
2018-08-25T14:29:51.920Z,14.24
2018-08-25T14:32:22.418Z,14.39
2018-08-25T14:34:52.918Z,14.25
2018-08-25T14:37:25.049Z,14.17
2018-08-25T14:39:55.460Z,14.12
2018-08-25T14:42:27.450Z,14.40
2018-08-25T14:44:58.445Z,14.47
2018-08-25T14:47:30.015Z,14.54
2018-08-25T14:50:00.225Z,14.56
2018-08-25T14:52:30.480Z,14.65
2018-08-25T14:55:00.664Z,14.79
2018-08-25T14:57:31.200Z,14.47
2018-08-25T15:00:02.450Z,14.39
2018-08-25T15:04:54.019Z,14.67
2018-08-25T15:07:25.153Z,14.92
2018-08-25T15:09:55.857Z,14.85
2018-08-25T15:12:26.197Z,14.94
2018-08-25T15:14:57.325Z,15.05
2018-08-25T15:17:28.790Z,15.19
2018-08-25T15:20:01.347Z,15.30
2018-08-25T15:22:32.383Z,14.88
2018-08-25T15:25:03.954Z,14.89
2018-08-25T15:27:34.518Z,14.66
2018-08-25T15:30:07.994Z,14.55
2018-08-25T15:32:40.663Z,14.54
2018-08-25T15:35:10.889Z,14.81
2018-08-25T15:37:42.565Z,14.59
2018-08-25T15:40:13.558Z,14.64
2018-08-25T15:42:43.889Z,14.75
2018-08-25T15:54:52.683Z,14.82
2018-08-25T15:57:36.995Z,15.00
2018-08-25T16:03:53.065Z,15.03
2018-08-25T16:06:26.053Z,15.22
2018-08-25T16:08:56.433Z,15.41
2018-08-25T16:11:28.021Z,15.47
2018-08-25T16:14:00.360Z,15.56
2018-08-25T16:16:30.940Z,15.45
2018-08-25T16:19:01.391Z,15.38
2018-08-25T16:21:35.070Z,15.53
2018-08-25T16:24:06.212Z,15.36
2018-08-25T16:26:38.556Z,15.46
2018-08-25T16:29:09.048Z,15.54
2018-08-25T16:31:41.937Z,15.54
2018-08-25T16:34:14.550Z,15.60
2018-08-25T16:40:09.282Z,15.38
2018-08-25T16:54:55.765Z,15.72
2018-08-25T17:03:54.060Z,15.65
2018-08-25T17:06:35.684Z,15.68
2018-08-25T17:09:22.678Z,15.51
2018-08-25T17:12:19.348Z,15.60
2018-08-25T17:15:18.105Z,15.54
2018-08-25T18:03:05.880Z,15.02
2018-08-25T18:30:43.806Z,14.59
2018-08-25T18:33:14.672Z,14.64
2018-08-25T18:35:48.083Z,14.63
2018-08-25T18:38:19.887Z,14.52
2018-08-25T18:40:56.451Z,14.37
2018-08-25T18:43:27.330Z,14.42
2018-08-25T18:45:57.699Z,14.34
2018-08-25T18:48:29.997Z,14.45
2018-08-25T18:51:01.603Z,14.31
2018-08-25T18:53:34.961Z,14.35
2018-08-25T18:59:18.739Z,14.24
2018-08-25T19:01:54.129Z,14.33
2018-08-25T19:04:30.851Z,14.32
2018-08-25T19:07:01.434Z,14.33
2018-08-25T19:09:39.908Z,14.41
2018-08-25T19:12:11.666Z,14.27
2018-08-25T19:14:43.018Z,14.36
2018-08-25T19:17:14.452Z,14.31
2018-08-25T19:19:47.023Z,14.31
2018-08-25T19:22:18.025Z,14.37
2018-08-25T19:24:49.902Z,14.26
2018-08-25T19:27:22.841Z,14.30
2018-08-25T19:30:13.313Z,14.36
2018-08-25T19:32:44.744Z,14.25
2018-08-25T19:35:16.774Z,14.24
2018-08-25T19:37:47.712Z,14.18
2018-08-25T19:40:18.824Z,14.10
2018-08-25T19:42:49.110Z,13.99
2018-08-25T19:45:19.752Z,14.20
2018-08-25T19:47:52.199Z,14.01
2018-08-25T19:50:23.077Z,13.88
2018-08-25T19:52:58.038Z,13.85
2018-08-25T19:55:31.045Z,13.81
2018-08-25T19:58:03.061Z,13.71
2018-08-25T20:00:36.923Z,13.69
2018-08-25T20:03:09.743Z,13.54
2018-08-25T20:05:40.687Z,13.63
2018-08-25T20:08:33.026Z,13.60
2018-08-25T20:11:11.635Z,13.57
2018-08-25T20:13:46.132Z,13.44
2018-08-25T20:16:23.637Z,13.61
2018-08-25T20:18:54.968Z,13.65
2018-08-25T20:21:32.482Z,13.55
2018-08-25T20:24:03.653Z,13.62
2018-08-25T21:11:41.352Z,13.65
2018-08-25T21:14:14.209Z,13.43
2018-08-25T21:16:47.211Z,13.34
2018-08-25T21:19:19.686Z,13.41
2018-08-25T21:21:52.933Z,13.56
2018-08-25T21:24:37.498Z,13.62
2018-08-25T21:27:13.109Z,13.60
2018-08-25T21:29:52.826Z,13.47
2018-08-25T21:32:23.992Z,13.53
2018-08-25T21:34:54.966Z,13.54
2018-08-25T21:37:25.919Z,13.56
2018-08-25T21:43:08.132Z,13.48
2018-08-25T21:45:39.327Z,13.39
2018-08-25T21:48:10.062Z,13.42
2018-08-25T21:50:40.317Z,13.48
2018-08-25T21:53:11.670Z,13.46
2018-08-25T21:55:41.853Z,13.35
2018-08-25T21:58:12.674Z,13.41
2018-08-25T22:00:47.859Z,13.27
2018-08-25T22:03:20.237Z,13.55
2018-08-25T22:05:54.142Z,13.30
2018-08-25T22:08:30.078Z,13.20
2018-08-25T22:11:00.664Z,13.20
2018-08-25T22:13:31.433Z,13.23
2018-08-25T22:16:02.324Z,13.27
2018-08-25T22:18:34.363Z,13.25
2018-08-25T22:21:07.154Z,13.24
2018-08-25T22:23:37.265Z,13.31
2018-08-25T22:26:07.587Z,13.48
2018-08-25T22:28:37.764Z,13.39
2018-08-25T22:31:08.751Z,13.22
2018-08-25T22:33:39.021Z,13.22
2018-08-25T22:36:09.234Z,13.38
2018-08-25T22:38:40.854Z,13.33
2018-08-25T22:41:11.102Z,13.35
2018-08-25T22:43:41.330Z,13.34
2018-08-25T22:46:11.572Z,13.11
2018-08-25T22:49:53.931Z,13.15
2018-08-25T22:52:30.551Z,12.95
2018-08-25T22:55:03.544Z,13.11
2018-08-25T22:57:36.105Z,13.13
2018-08-25T23:00:07.196Z,13.09
2018-08-25T23:02:37.410Z,13.04
2018-08-25T23:05:07.701Z,13.12
2018-08-25T23:07:38.485Z,12.90
2018-08-25T23:10:09.486Z,13.06
2018-08-25T23:12:42.244Z,12.99
2018-08-25T23:15:12.730Z,12.91
2018-08-25T23:17:43.117Z,12.60
2018-08-25T23:20:13.435Z,12.76
2018-08-25T23:22:43.615Z,12.81
2018-08-25T23:25:15.227Z,12.89
2018-08-25T23:27:46.301Z,13.00
2018-08-25T23:30:18.483Z,12.99
2018-08-25T23:32:53.270Z,12.95
2018-08-25T23:35:23.728Z,12.93
2018-08-25T23:37:53.732Z,13.07
2018-08-25T23:40:27.009Z,13.00
2018-08-25T23:42:58.593Z,13.08
2018-08-25T23:45:30.626Z,12.93
2018-08-25T23:48:00.820Z,13.02
2018-08-25T23:50:30.919Z,12.94
2018-08-25T23:53:02.426Z,12.87
2018-08-25T23:55:33.256Z,12.89
2018-08-25T23:58:04.305Z,12.87
